Time,TemperatureF,DewpointF,PressureIn,WindDirection,WindDirectionDegrees,WindSpeedMPH,WindSpeedGustMPH,Humidity,HourlyPrecipIn,Conditions,Clouds,dailyrainin,SoftwareType,DateUTC
2013-02-01 00:00:00,26.6,-3.7,29.79,SSW,211,0.0,17.2,26,0.00,,OVC055,0.00,VWS V14.00,2013-02-01 05:00:00,
2013-02-01 00:15:00,26.8,-1.9,29.82,WNW,292,6.0,12.1,28,0.00,,OVC055,0.00,VWS V14.00,2013-02-01 05:15:00,
2013-02-01 00:30:00,26.8,-1.9,29.79,WSW,253,2.7,6.5,28,0.00,,OVC055,0.00,VWS V14.00,2013-02-01 05:30:00,
2013-02-01 00:45:00,27.0,-3.3,29.79,South,183,0.0,6.9,26,0.00,,OVC055,0.00,VWS V14.00,2013-02-01 05:45:00,
2013-02-01 01:00:00,26.6,-1.4,29.79,WNW,302,0.0,11.6,29,0.00,,BKN055,0.00,VWS V14.00,2013-02-01 06:00:00,
2013-02-01 01:15:00,25.9,-2.0,29.79,SW,214,0.0,6.9,29,0.00,,BKN055,0.00,VWS V14.00,2013-02-01 06:15:00,
2013-02-01 01:30:00,25.7,-0.7,29.79,SW,231,0.0,6.0,31,0.00,,BKN055,0.00,VWS V14.00,2013-02-01 06:30:00,
2013-02-01 01:45:00,25.3,-1.1,29.79,SW,216,0.0,8.9,31,0.00,,BKN055,0.00,VWS V14.00,2013-02-01 06:45:00,
2013-02-01 02:00:00,25.0,-1.4,29.79,WSW,238,0.0,9.4,31,0.00,,BKN080,0.00,VWS V14.00,2013-02-01 07:00:00,
2013-02-01 02:15:00,25.0,-2.8,29.79,SSW,197,0.0,8.7,29,0.00,,BKN080,0.00,VWS V14.00,2013-02-01 07:15:00,
2013-02-01 02:31:00,24.6,-3.1,29.79,SW,236,0.0,6.9,29,0.00,,BKN080,0.00,VWS V14.00,2013-02-01 07:31:00,
2013-02-01 02:45:00,24.4,-3.2,29.79,WSW,238,3.1,8.3,29,0.00,,BKN080,0.00,VWS V14.00,2013-02-01 07:45:00,
2013-02-01 03:00:00,24.4,-4.7,29.79,SW,236,0.0,3.6,27,0.00,,CLR,0.00,VWS V14.00,2013-02-01 08:00:00,
2013-02-01 03:15:00,24.1,-3.6,29.79,SW,214,0.0,0.4,29,0.00,,CLR,0.00,VWS V14.00,2013-02-01 08:15:00,
2013-02-01 03:30:00,23.9,-3.7,29.82,South,187,0.0,9.4,29,0.00,,CLR,0.00,VWS V14.00,2013-02-01 08:30:00,
2013-02-01 03:45:00,23.9,-3.7,29.79,SW,228,0.0,6.5,29,0.00,,CLR,0.00,VWS V14.00,2013-02-01 08:45:00,
2013-02-01 04:00:00,23.9,-1.7,29.79,SW,217,0.0,5.1,32,0.00,,CLR,0.00,VWS V14.00,2013-02-01 09:00:00,
2013-02-01 04:15:00,24.1,-3.6,29.82,SSW,199,0.0,3.6,29,0.00,,CLR,0.00,VWS V14.00,2013-02-01 09:15:00,
2013-02-01 04:30:00,24.3,-3.4,29.82,SW,218,0.0,4.7,29,0.00,,CLR,0.00,VWS V14.00,2013-02-01 09:30:00,
2013-02-01 04:45:00,24.4,-3.2,29.82,SSW,209,0.0,6.9,29,0.00,,CLR,0.00,VWS V14.00,2013-02-01 09:45:00,
2013-02-01 05:00:00,24.4,-3.2,29.82,WSW,242,4.7,6.9,29,0.00,,FEW100,0.00,VWS V14.00,2013-02-01 10:00:00,
2013-02-01 05:15:00,24.4,-3.2,29.82,West,274,0.0,6.5,29,0.00,,FEW100,0.00,VWS V14.00,2013-02-01 10:15:00,
2013-02-01 05:30:00,24.8,-2.9,29.82,SW,218,0.0,5.6,29,0.00,,FEW100,0.00,VWS V14.00,2013-02-01 10:30:00,
2013-02-01 05:45:00,24.8,-2.9,29.85,West,261,4.5,7.4,29,0.00,,BKN100,0.00,VWS V14.00,2013-02-01 10:45:00,
2013-02-01 06:00:00,24.8,-4.4,29.85,WNW,291,0.0,6.5,27,0.00,,BKN100,0.00,VWS V14.00,2013-02-01 11:00:00,
2013-02-01 06:15:00,24.6,-4.6,29.85,WSW,249,4.5,9.4,27,0.00,,BKN100,0.00,VWS V14.00,2013-02-01 11:15:00,
2013-02-01 06:30:00,24.3,-4.9,29.88,SW,232,4.7,8.9,27,0.00,,BKN100,0.00,VWS V14.00,2013-02-01 11:30:00,
2013-02-01 06:45:00,23.2,-5.8,29.88,WNW,285,3.6,12.5,27,0.00,,OVC100,0.00,VWS V14.00,2013-02-01 11:45:00,
2013-02-01 07:01:00,22.8,-6.1,29.91,South,185,6.5,11.2,27,0.00,,OVC100,0.00,VWS V14.00,2013-02-01 12:01:00,
2013-02-01 07:15:00,22.5,-6.5,29.91,South,185,6.5,6.5,27,0.00,,OVC100,0.00,VWS V14.00,2013-02-01 12:15:00,
2013-02-01 07:30:00,21.9,-6.9,29.91,South,185,6.5,6.5,27,0.00,,OVC100,0.00,VWS V14.00,2013-02-01 12:30:00,
2013-02-01 07:46:00,21.6,-7.2,29.91,WSW,256,6.9,6.9,27,0.00,,OVC100,0.00,VWS V14.00,2013-02-01 12:46:00,
2013-02-01 08:00:00,21.6,-7.2,29.91,WNW,287,4.7,6.9,27,0.00,,OVC100,0.00,VWS V14.00,2013-02-01 13:00:00,
2013-02-01 08:15:00,21.9,-6.9,29.94,South,188,4.7,25.1,27,0.00,,OVC100,0.00,VWS V14.00,2013-02-01 13:15:00,
2013-02-01 08:30:00,23.0,-6.0,29.94,SW,230,4.0,8.7,27,0.00,,OVC100,0.00,VWS V14.00,2013-02-01 13:30:00,
2013-02-01 08:45:00,22.6,-7.9,29.97,SW,226,6.9,10.7,25,0.00,,BKN080,0.00,VWS V14.00,2013-02-01 13:45:00,
2013-02-01 09:01:00,22.5,-8.0,29.97,SSW,207,2.7,6.9,25,0.00,,BKN080,0.00,VWS V14.00,2013-02-01 14:01:00,
2013-02-01 09:15:00,22.1,-8.3,29.97,WSW,239,4.5,47.4,25,0.00,,BKN080,0.00,VWS V14.00,2013-02-01 14:15:00,
2013-02-01 09:30:00,22.8,-7.7,29.97,West,259,0.0,10.7,25,0.00,,BKN080,0.00,VWS V14.00,2013-02-01 14:30:00,
2013-02-01 09:46:00,23.7,-7.8,30.00,SW,231,4.5,4.5,24,0.00,,BKN080,0.00,VWS V14.00,2013-02-01 14:46:00,
2013-02-01 10:00:00,23.5,-7.9,30.00,NW,309,4.5,10.3,24,0.00,,CLR,0.00,VWS V14.00,2013-02-01 15:00:00,
2013-02-01 10:15:00,23.4,-8.1,30.00,NNW,334,3.6,8.9,24,0.00,,CLR,0.00,VWS V14.00,2013-02-01 15:15:00,
2013-02-01 10:31:00,23.5,-7.9,30.00,SSW,194,0.0,30.4,24,0.00,,CLR,0.00,VWS V14.00,2013-02-01 15:31:00,
2013-02-01 10:45:00,24.3,-7.3,30.00,West,277,4.7,15.4,24,0.00,,CLR,0.00,VWS V14.00,2013-02-01 15:45:00,
2013-02-01 11:00:00,24.3,-7.3,30.00,South,184,3.1,9.4,24,0.00,,CLR,0.00,VWS V14.00,2013-02-01 16:00:00,
2013-02-01 11:15:00,24.6,-7.0,30.03,NW,307,6.9,7.8,24,0.00,,CLR,0.00,VWS V14.00,2013-02-01 16:15:00,
2013-02-01 11:30:00,24.6,-7.0,30.03,WSW,237,7.8,9.4,24,0.00,,CLR,0.00,VWS V14.00,2013-02-01 16:30:00,
2013-02-01 11:45:00,25.3,-6.4,30.03,West,279,0.0,12.1,24,0.00,,CLR,0.00,VWS V14.00,2013-02-01 16:45:00,
2013-02-01 12:00:00,24.6,-7.0,30.03,WNW,300,6.9,15.4,24,0.00,,SCT048,0.00,VWS V14.00,2013-02-01 17:00:00,
2013-02-01 12:15:00,25.2,-6.6,30.03,SW,224,0.0,14.1,24,0.00,,SCT048,0.00,VWS V14.00,2013-02-01 17:15:00,
2013-02-01 12:30:00,25.5,-6.2,30.03,WSW,250,4.0,11.2,24,0.00,,SCT048,0.00,VWS V14.00,2013-02-01 17:30:00,
2013-02-01 12:45:00,25.3,-6.4,30.03,SW,235,0.0,9.4,24,0.00,,BKN049,0.00,VWS V14.00,2013-02-01 17:45:00,
2013-02-01 13:00:00,24.8,-6.9,30.03,SW,225,0.0,18.8,24,0.00,,BKN049,0.00,VWS V14.00,2013-02-01 18:00:00,
2013-02-01 13:15:00,25.2,-6.6,30.03,WNW,300,0.0,10.3,24,0.00,,BKN049,0.00,VWS V14.00,2013-02-01 18:15:00,
2013-02-01 13:30:00,27.5,-5.4,30.03,SSW,210,0.0,18.3,23,0.00,,BKN049,0.00,VWS V14.00,2013-02-01 18:30:00,
2013-02-01 13:45:00,26.1,-5.8,30.03,NW,319,4.0,12.5,24,0.00,,BKN065,0.00,VWS V14.00,2013-02-01 18:45:00,
2013-02-01 14:00:00,27.0,-5.9,30.03,WSW,238,4.5,13.6,23,0.00,,BKN065,0.00,VWS V14.00,2013-02-01 19:00:00,
2013-02-01 14:15:00,26.2,-5.6,30.06,WSW,255,0.0,14.5,24,0.00,,BKN065,0.00,VWS V14.00,2013-02-01 19:15:00,
2013-02-01 14:30:00,25.7,-6.1,30.06,WSW,258,8.3,11.2,24,0.00,,BKN065,0.00,VWS V14.00,2013-02-01 19:30:00,
2013-02-01 14:45:00,25.7,-6.1,30.06,SW,227,6.0,11.6,24,0.00,,OVC075,0.00,VWS V14.00,2013-02-01 19:45:00,
2013-02-01 15:00:00,25.5,-6.2,30.06,WNW,290,0.0,12.1,24,0.00,,OVC075,0.00,VWS V14.00,2013-02-01 20:00:00,
2013-02-01 15:15:00,24.8,-6.9,30.06,WSW,254,3.1,8.7,24,0.00,,OVC075,0.00,VWS V14.00,2013-02-01 20:15:00,
2013-02-01 15:30:00,23.9,-9.4,30.09,South,187,2.7,3.1,22,0.00,,OVC075,0.00,VWS V14.00,2013-02-01 20:30:00,
2013-02-01 15:45:00,24.4,-8.9,30.09,South,187,2.7,2.7,22,0.00,,OVC075,0.00,VWS V14.00,2013-02-01 20:45:00,
2013-02-01 16:00:00,24.1,-9.2,30.12,South,187,2.7,2.7,22,0.00,,BKN060,0.00,VWS V14.00,2013-02-01 21:00:00,
2013-02-01 16:15:00,23.7,-9.6,30.12,North,6,0.0,8.9,22,0.00,,BKN060,0.00,VWS V14.00,2013-02-01 21:15:00,
2013-02-01 16:30:00,23.9,-9.4,30.12,WSW,237,0.0,6.9,22,0.00,,BKN060,0.00,VWS V14.00,2013-02-01 21:30:00,
2013-02-01 16:45:00,22.8,-10.3,30.12,West,276,3.6,3.6,22,0.00,,BKN060,0.00,VWS V14.00,2013-02-01 21:45:00,
2013-02-01 17:00:00,22.8,-10.3,30.12,WSW,238,9.8,9.8,22,0.00,,BKN060,0.00,VWS V14.00,2013-02-01 22:00:00,
2013-02-01 17:15:00,22.5,-10.6,30.15,WSW,238,9.8,9.8,22,0.00,,BKN060,0.00,VWS V14.00,2013-02-01 22:15:00,
2013-02-01 17:30:00,21.7,-11.2,30.15,West,264,25.9,25.9,22,0.00,,BKN060,0.00,VWS V14.00,2013-02-01 22:30:00,
2013-02-01 17:45:00,21.7,-11.2,30.18,SSW,200,3.1,25.9,22,0.00,,OVC060,0.00,VWS V14.00,2013-02-01 22:45:00,
2013-02-01 18:00:00,21.2,-11.7,30.18,West,273,0.0,3.1,22,0.00,,OVC060,0.00,VWS V14.00,2013-02-01 23:00:00,
2013-02-01 18:15:00,21.2,-11.7,30.18,West,273,0.0,0.0,22,0.00,,OVC060,0.00,VWS V14.00,2013-02-01 23:15:00,
2013-02-01 18:30:00,21.0,-11.9,30.18,West,278,0.0,0.0,22,0.00,,OVC060,0.00,VWS V14.00,2013-02-01 23:30:00,
2013-02-01 18:45:00,20.8,-12.0,30.18,SW,235,0.0,0.0,22,0.00,,CLR,0.00,VWS V14.00,2013-02-01 23:45:00,
2013-02-01 19:00:00,20.7,-12.2,30.21,SW,235,0.0,0.0,22,0.00,,CLR,0.00,VWS V14.00,2013-02-02 00:00:00,
2013-02-01 19:15:00,20.5,-12.3,30.21,SW,214,8.7,8.7,22,0.00,,CLR,0.00,VWS V14.00,2013-02-02 00:15:00,
2013-02-01 19:30:00,20.1,-10.1,30.21,SW,214,8.7,8.7,25,0.00,,CLR,0.00,VWS V14.00,2013-02-02 00:30:00,
2013-02-01 19:45:00,19.9,-12.8,30.21,SSW,212,0.0,8.7,22,0.00,,CLR,0.00,VWS V14.00,2013-02-02 00:45:00,
2013-02-01 20:00:00,19.8,-10.4,30.24,SW,216,0.0,4.7,25,0.00,,CLR,0.00,VWS V14.00,2013-02-02 01:00:00,
2013-02-01 20:15:00,19.6,-10.5,30.24,West,260,3.6,10.7,25,0.00,,CLR,0.00,VWS V14.00,2013-02-02 01:15:00,
2013-02-01 20:30:00,19.4,-10.7,30.24,West,260,3.6,3.6,25,0.00,,CLR,0.00,VWS V14.00,2013-02-02 01:30:00,
2013-02-01 20:45:00,19.0,-12.6,30.24,SW,221,3.1,3.6,23,0.00,,CLR,0.00,VWS V14.00,2013-02-02 01:45:00,
2013-02-01 21:00:00,18.9,-12.8,30.24,SW,232,0.0,45.9,23,0.00,,CLR,0.00,VWS V14.00,2013-02-02 02:00:00,
2013-02-01 21:15:00,18.5,-13.1,30.27,SW,222,5.6,11.2,23,0.00,,CLR,0.00,VWS V14.00,2013-02-02 02:15:00,
2013-02-01 21:30:00,18.3,-13.3,30.27,West,268,6.5,6.5,23,0.00,,CLR,0.00,VWS V14.00,2013-02-02 02:30:00,
2013-02-01 21:45:00,18.1,-11.8,30.27,SW,219,0.0,44.7,25,0.00,,CLR,0.00,VWS V14.00,2013-02-02 02:45:00,
2013-02-01 22:00:00,18.1,-11.8,30.27,SW,215,6.9,6.9,25,0.00,,CLR,0.00,VWS V14.00,2013-02-02 03:00:00,
2013-02-01 22:15:00,18.0,-11.9,30.27,SSW,192,10.3,11.2,25,0.00,,CLR,0.00,VWS V14.00,2013-02-02 03:15:00,
2013-02-01 22:30:00,17.8,-12.1,30.27,WNW,284,6.0,27.3,25,0.00,,CLR,0.00,VWS V14.00,2013-02-02 03:30:00,
2013-02-01 22:45:00,17.6,-11.4,30.27,South,176,2.7,47.9,26,0.00,,CLR,0.00,VWS V14.00,2013-02-02 03:45:00,
2013-02-01 23:01:00,17.6,-11.4,30.29,SW,220,3.1,3.1,26,0.00,,CLR,0.00,VWS V14.00,2013-02-02 04:01:00,
2013-02-01 23:15:00,17.4,-11.6,30.29,SW,220,3.1,3.1,26,0.00,,CLR,0.00,VWS V14.00,2013-02-02 04:15:00,
2013-02-01 23:30:00,17.1,-11.9,30.29,NW,306,9.4,9.4,26,0.00,,CLR,0.00,VWS V14.00,2013-02-02 04:30:00,
2013-02-01 23:46:00,16.9,-12.1,30.29,NW,306,9.4,9.4,26,0.00,,CLR,0.00,VWS V14.00,2013-02-02 04:46:00,